Time;durP1;ratioP1;P1;durP2;ratioP2;P2;SDS_P1;SDS_P2;PMS_P1;PMS_P2;Temp;Humidity;BMP_temperature;BMP_pressure;BME280_temperature;BME280_humidity;BME280_pressure;Samples;Min_cycle;Max_cycle;Signal;HPM_P1;HPM_P2
2023/03/23 00:01:57;;;;;;;3.03;1.25;;;;;;;12.38;70.98;99750.34;5082952;28;20035;-70
2023/03/23 00:04:25;;;;;;;5.32;1.20;;;;;;;12.40;70.91;99749.38;5102785;28;20490;-71
2023/03/23 00:06:51;;;;;;;3.20;1.20;;;;;;;12.45;70.86;99746.63;5101657;28;20035;-71
2023/03/23 00:09:17;;;;;;;2.88;1.25;;;;;;;12.49;70.61;99742.97;5101987;28;20028;-71
2023/03/23 00:11:42;;;;;;;2.47;1.40;;;;;;;12.53;70.44;99741.13;5102043;28;20036;-71
2023/03/23 00:14:12;;;;;;;2.75;1.23;;;;;;;12.55;70.91;99745.47;5101702;28;20582;-71
2023/03/23 00:16:40;;;;;;;2.50;1.30;;;;;;;12.61;70.43;99749.72;5100085;28;20038;-70
2023/03/23 00:19:14;;;;;;;3.33;1.20;;;;;;;12.65;70.64;99740.78;5100370;28;20085;-71
2023/03/23 00:21:41;;;;;;;1.90;0.95;;;;;;;12.65;70.18;99739.03;5096341;28;20048;-71
2023/03/23 00:24:17;;;;;;;2.45;1.13;;;;;;;12.74;70.12;99739.69;5097245;28;20035;-71
2023/03/23 00:26:48;;;;;;;2.90;1.23;;;;;;;12.74;70.03;99737.03;5100328;28;20486;-71
2023/03/23 00:29:15;;;;;;;3.22;1.02;;;;;;;12.76;69.79;99740.47;5084289;28;20027;-71
2023/03/23 00:31:46;;;;;;;3.67;1.02;;;;;;;12.77;69.67;99731.66;5100575;28;20438;-71
2023/03/23 00:34:12;;;;;;;1.83;0.90;;;;;;;12.78;69.40;99733.38;5095878;28;20039;-71
2023/03/23 00:36:42;;;;;;;2.53;1.02;;;;;;;12.81;69.62;99731.53;5085237;28;20035;-72
2023/03/23 00:39:08;;;;;;;2.60;1.27;;;;;;;12.81;69.84;99728.88;5100514;28;20035;-71
2023/03/23 00:41:36;;;;;;;4.18;1.40;;;;;;;12.80;69.88;99718.31;5082743;28;20048;-71
2023/03/23 00:44:02;;;;;;;3.30;1.42;;;;;;;12.77;70.35;99713.97;5101560;28;20027;-71
2023/03/23 00:46:28;;;;;;;2.15;1.08;;;;;;;12.73;70.58;99717.59;5096283;28;20032;-71
2023/03/23 00:48:54;;;;;;;3.28;1.33;;;;;;;12.65;70.91;99711.66;5096812;28;20056;-71
2023/03/23 00:51:20;;;;;;;3.20;1.17;;;;;;;12.60;71.63;99709.16;5099835;28;20047;-71
2023/03/23 00:53:46;;;;;;;3.00;1.20;;;;;;;12.60;71.13;99697.69;5101595;28;20047;-71
2023/03/23 00:56:12;;;;;;;3.72;1.20;;;;;;;12.52;71.49;99704.97;5082368;28;20031;-71
2023/03/23 00:58:37;;;;;;;2.33;1.10;;;;;;;12.47;71.47;99700.69;5101282;28;20156;-71
2023/03/23 01:01:04;;;;;;;2.60;1.02;;;;;;;12.50;71.13;99699.75;5101924;28;20050;-71
2023/03/23 01:03:29;;;;;;;2.65;1.38;;;;;;;12.45;71.46;99699.00;5082294;28;20035;-71
2023/03/23 01:05:58;;;;;;;2.58;1.40;;;;;;;12.40;71.68;99699.09;5084814;28;20443;-71
2023/03/23 01:08:24;;;;;;;2.40;1.15;;;;;;;12.38;71.81;99702.69;5081577;28;20036;-71
2023/03/23 01:10:50;;;;;;;3.38;0.98;;;;;;;12.29;72.90;99698.53;5084605;28;20544;-71
2023/03/23 01:13:16;;;;;;;2.95;1.55;;;;;;;12.18;72.89;99690.88;5101294;28;20031;-71
2023/03/23 01:15:42;;;;;;;2.72;1.25;;;;;;;12.19;72.57;99683.81;5081073;28;20123;-71
2023/03/23 01:18:08;;;;;;;3.75;1.25;;;;;;;12.17;72.69;99686.47;5099260;28;20016;-72
2023/03/23 01:20:35;;;;;;;2.17;1.15;;;;;;;12.24;71.99;99674.84;5102505;28;20092;-71
2023/03/23 01:23:01;;;;;;;3.70;1.27;;;;;;;12.26;71.76;99670.38;5081583;28;20036;-71
2023/03/23 01:25:28;;;;;;;3.03;1.02;;;;;;;12.27;72.06;99668.59;5084211;28;20032;-71
2023/03/23 01:27:53;;;;;;;2.50;1.10;;;;;;;12.25;71.80;99676.56;5081892;28;20036;-71
2023/03/23 01:30:19;;;;;;;2.00;0.98;;;;;;;12.28;71.60;99673.84;5083130;28;20032;-71
2023/03/23 01:32:44;;;;;;;4.40;1.15;;;;;;;12.31;71.31;99679.94;5101884;28;20036;-71
2023/03/23 01:35:12;;;;;;;2.78;1.13;;;;;;;12.34;71.26;99669.28;5102846;28;20043;-71
2023/03/23 01:37:37;;;;;;;2.15;0.93;;;;;;;12.31;70.57;99675.53;5105014;28;20031;-71
2023/03/23 01:40:04;;;;;;;3.55;0.93;;;;;;;12.35;70.60;99671.91;5086042;28;20391;-70
2023/03/23 01:42:33;;;;;;;2.90;1.10;;;;;;;12.37;70.30;99658.66;5088067;28;20046;-71
2023/03/23 01:45:18;;;;;;;2.25;1.00;;;;;;;12.28;70.77;99665.88;5084068;28;20036;-71
2023/03/23 01:47:45;;;;;;;3.08;1.00;;;;;;;12.22;70.72;99660.78;5095702;22;20044;-73
2023/03/23 01:50:11;;;;;;;4.05;1.00;;;;;;;12.19;71.00;99663.50;5104018;28;20439;-73
2023/03/23 01:52:36;;;;;;;3.80;1.02;;;;;;;12.17;70.58;99667.09;5104180;28;20039;-73
2023/03/23 01:55:04;;;;;;;3.03;0.90;;;;;;;12.15;70.35;99669.78;5086180;28;20031;-73
2023/03/23 01:57:31;;;;;;;4.07;1.08;;;;;;;12.18;70.56;99658.25;5081586;28;20036;-73
2023/03/23 02:00:06;;;;;;;2.92;1.00;;;;;;;12.18;70.33;99663.53;5048857;28;20624;-73
2023/03/23 02:02:41;;;;;;;2.17;0.90;;;;;;;12.26;70.33;99667.75;5066608;28;20126;-73
2023/03/23 02:05:13;;;;;;;3.60;1.02;;;;;;;12.26;69.53;99661.56;5046312;28;20036;-73
2023/03/23 02:07:41;;;;;;;2.25;0.73;;;;;;;12.22;69.45;99666.06;5046421;28;20037;-73
2023/03/23 02:10:07;;;;;;;2.10;0.70;;;;;;;12.16;69.92;99655.66;5044756;28;20046;-73
2023/03/23 02:12:34;;;;;;;4.97;0.90;;;;;;;12.11;70.20;99646.97;5046997;28;20400;-73
2023/03/23 02:15:02;;;;;;;3.75;1.00;;;;;;;12.04;70.49;99654.19;5052171;28;20033;-73
2023/03/23 02:17:51;;;;;;;2.20;0.95;;;;;;;11.95;70.71;99650.94;5043491;28;20033;-73
2023/03/23 02:20:22;;;;;;;1.80;0.85;;;;;;;11.94;70.55;99650.03;5061091;28;20052;-73
2023/03/23 02:23:07;;;;;;;2.95;0.70;;;;;;;11.91;70.56;99649.28;5065442;28;20033;-73
2023/03/23 02:25:55;;;;;;;2.85;0.93;;;;;;;11.85;70.67;99640.56;5045726;28;20040;-73
2023/03/23 02:28:49;;;;;;;3.85;1.00;;;;;;;11.81;70.55;99641.53;5072348;28;20024;-72
2023/03/23 02:31:23;;;;;;;1.67;0.75;;;;;;;11.75;70.35;99641.69;5063431;28;20056;-73
2023/03/23 02:34:17;;;;;;;3.20;1.00;;;;;;;11.78;70.44;99638.97;5048609;28;20483;-72
2023/03/23 02:36:52;;;;;;;1.63;0.65;;;;;;;11.77;70.67;99636.38;5075116;28;20040;-73
2023/03/23 02:39:23;;;;;;;1.67;0.60;;;;;;;11.76;70.41;99642.56;5061484;28;20020;-73
2023/03/23 02:41:57;;;;;;;3.42;0.88;;;;;;;11.75;70.58;99639.03;5045835;28;20086;-72
2023/03/23 02:44:27;;;;;;;1.05;0.50;;;;;;;11.77;70.59;99641.66;5049282;28;20039;-72
2023/03/23 02:46:54;;;;;;;1.98;0.70;;;;;;;11.79;70.29;99642.50;5059993;28;20036;-73
2023/03/23 02:49:20;;;;;;;3.20;0.52;;;;;;;11.85;70.03;99635.25;5060894;28;20041;-72
2023/03/23 02:51:47;;;;;;;2.33;0.63;;;;;;;11.97;69.61;99633.22;5046968;28;20024;-72
2023/03/23 02:54:16;;;;;;;1.17;0.60;;;;;;;12.06;68.39;99627.72;5063710;28;20126;-72
2023/03/23 02:56:43;;;;;;;2.58;0.85;;;;;;;12.16;68.53;99620.41;5046163;28;20406;-72
2023/03/23 02:59:16;;;;;;;1.42;0.52;;;;;;;12.25;67.35;99617.50;5048286;28;20036;-72
2023/03/23 03:01:41;;;;;;;3.10;0.80;;;;;;;12.37;67.39;99617.16;5053692;28;20060;-72
2023/03/23 03:04:13;;;;;;;3.78;0.70;;;;;;;12.50;65.90;99613.25;5052503;28;20036;-72
2023/03/23 03:06:49;;;;;;;3.10;0.68;;;;;;;12.67;65.89;99610.13;5046049;28;20039;-72
2023/03/23 03:09:30;;;;;;;1.38;0.60;;;;;;;12.78;65.25;99606.28;5060984;28;20403;-73
2023/03/23 03:12:01;;;;;;;2.20;0.80;;;;;;;12.85;64.74;99616.66;5064464;28;20039;-73
2023/03/23 03:14:33;;;;;;;6.22;1.02;;;;;;;12.92;64.21;99609.41;5060691;28;20045;-73
2023/03/23 03:17:10;;;;;;;1.67;0.60;;;;;;;12.98;64.06;99614.50;5043409;28;20044;-73
2023/03/23 03:19:43;;;;;;;2.25;0.75;;;;;;;13.02;63.63;99610.84;5043686;28;20074;-73
2023/03/23 03:22:09;;;;;;;3.20;0.60;;;;;;;13.01;63.89;99617.03;5046277;28;20473;-73
2023/03/23 03:24:42;;;;;;;3.45;1.00;;;;;;;13.05;64.06;99612.53;5060775;28;20116;-73
2023/03/23 03:27:20;;;;;;;1.55;0.55;;;;;;;13.03;63.83;99612.56;5045257;28;20115;-73
2023/03/23 03:29:56;;;;;;;2.97;0.60;;;;;;;13.04;64.02;99606.34;5030226;28;20029;-73
2023/03/23 03:32:30;;;;;;;3.80;0.80;;;;;;;13.05;63.74;99616.06;5067733;28;20119;-73
2023/03/23 03:34:59;;;;;;;1.70;0.80;;;;;;;13.06;63.68;99612.47;5043878;28;20033;-73
2023/03/23 03:37:26;;;;;;;1.58;0.70;;;;;;;13.07;63.68;99608.94;5061964;28;20127;-74
2023/03/23 03:39:52;;;;;;;2.80;0.85;;;;;;;13.00;63.89;99598.56;5045713;28;20115;-73
2023/03/23 03:42:18;;;;;;;2.22;0.80;;;;;;;12.94;64.14;99602.25;5048931;28;20043;-73
2023/03/23 03:44:43;;;;;;;2.97;0.93;;;;;;;12.92;63.79;99598.81;5062413;28;20040;-73
2023/03/23 03:47:09;;;;;;;2.15;0.98;;;;;;;12.97;63.77;99586.28;5050746;28;20048;-73
2023/03/23 03:49:35;;;;;;;2.45;0.80;;;;;;;13.01;63.82;99601.16;5061903;28;20028;-73
2023/03/23 03:52:00;;;;;;;1.13;0.63;;;;;;;13.07;63.41;99592.16;5044946;28;20082;-73
2023/03/23 03:54:35;;;;;;;2.33;0.65;;;;;;;13.14;63.50;99591.03;5042328;28;20029;-73
2023/03/23 03:57:01;;;;;;;2.42;0.70;;;;;;;13.16;63.85;99579.47;5045128;28;20082;-73
2023/03/23 03:59:58;;;;;;;1.95;0.70;;;;;;;13.11;63.89;99586.72;5061777;28;20041;-73
2023/03/23 04:02:50;;;;;;;2.17;1.00;;;;;;;13.12;63.85;99585.78;5049569;28;20067;-73
2023/03/23 04:05:18;;;;;;;1.50;0.60;;;;;;;13.08;64.08;99585.94;5042913;28;20499;-73
2023/03/23 04:07:51;;;;;;;1.98;0.88;;;;;;;13.07;63.90;99587.75;5044063;28;20028;-74
2023/03/23 04:10:19;;;;;;;3.78;0.80;;;;;;;13.03;64.78;99583.44;5061891;28;20035;-73
2023/03/23 04:12:45;;;;;;;1.58;0.57;;;;;;;13.01;64.75;99585.25;5045522;28;20029;-73
2023/03/23 04:15:34;;;;;;;1.15;0.60;;;;;;;12.92;65.31;99583.78;5050114;28;20136;-73
2023/03/23 04:17:59;;;;;;;1.48;0.57;;;;;;;12.91;65.47;99586.47;5047590;28;20502;-72
2023/03/23 04:20:26;;;;;;;1.40;0.70;;;;;;;12.92;65.26;99582.91;5050510;28;20444;-73
2023/03/23 04:22:54;;;;;;;2.63;0.85;;;;;;;12.89;65.71;99582.97;5047813;28;20058;-74
2023/03/23 04:25:21;;;;;;;2.22;0.50;;;;;;;12.83;65.88;99573.44;5045624;28;20036;-74
2023/03/23 04:27:53;;;;;;;2.08;0.50;;;;;;;12.80;66.34;99580.63;5053287;28;20426;-74
2023/03/23 04:30:26;;;;;;;2.20;0.70;;;;;;;12.82;66.59;99582.31;5050032;28;20483;-74
2023/03/23 04:33:07;;;;;;;3.35;0.90;;;;;;;12.88;65.91;99586.56;5066955;28;20410;-73
2023/03/23 04:35:33;;;;;;;3.15;0.90;;;;;;;12.96;65.56;99583.66;5053205;28;20244;-73
2023/03/23 04:38:16;;;;;;;2.63;0.90;;;;;;;12.95;65.57;99588.09;5043282;28;20108;-74
2023/03/23 04:40:43;;;;;;;2.28;0.95;;;;;;;12.96;65.03;99579.25;5044695;28;20056;-74
2023/03/23 04:43:24;;;;;;;3.35;0.90;;;;;;;13.06;64.72;99574.53;5046853;28;20060;-73
2023/03/23 04:46:09;;;;;;;2.20;0.70;;;;;;;13.16;64.16;99575.97;5059306;28;20036;-74
2023/03/23 04:48:38;;;;;;;1.85;0.90;;;;;;;13.26;63.57;99571.25;5049462;28;20087;-74
2023/03/23 04:51:09;;;;;;;2.05;0.88;;;;;;;13.34;63.62;99572.75;5047860;28;20047;-74
2023/03/23 04:53:36;;;;;;;2.65;0.80;;;;;;;13.40;63.43;99568.19;5050209;28;20060;-73
2023/03/23 04:56:02;;;;;;;2.95;1.10;;;;;;;13.42;63.47;99566.34;5052268;28;20491;-74
2023/03/23 04:58:33;;;;;;;2.65;1.10;;;;;;;13.45;63.40;99566.25;5042670;28;20067;-74
2023/03/23 05:01:28;;;;;;;2.15;0.80;;;;;;;13.55;63.31;99583.56;5046250;28;20533;-74
2023/03/23 05:04:06;;;;;;;1.90;0.98;;;;;;;13.64;63.30;99585.03;5044412;28;20509;-73
2023/03/23 05:06:32;;;;;;;3.65;1.20;;;;;;;13.69;62.54;99583.09;5052243;28;20580;-74
2023/03/23 05:09:03;;;;;;;2.22;0.90;;;;;;;13.71;62.54;99583.91;5050743;28;20116;-74
2023/03/23 05:11:29;;;;;;;2.38;1.10;;;;;;;13.76;62.30;99580.19;5051714;28;20032;-73
2023/03/23 05:13:55;;;;;;;2.05;0.77;;;;;;;13.79;62.19;99581.88;5055152;28;20054;-75
2023/03/23 05:16:21;;;;;;;2.10;0.90;;;;;;;13.85;62.17;99581.66;5044601;28;20032;-74
2023/03/23 05:18:47;;;;;;;8.20;1.10;;;;;;;13.88;61.91;99578.88;5048831;28;20021;-74
2023/03/23 05:21:15;;;;;;;2.67;0.90;;;;;;;13.90;62.52;99585.00;5053891;28;20048;-74
2023/03/23 05:23:45;;;;;;;5.20;2.15;;;;;;;13.92;62.13;99577.00;5046176;28;20131;-73
2023/03/23 05:26:16;;;;;;;4.25;1.50;;;;;;;13.91;62.29;99578.81;5072226;28;20059;-74
2023/03/23 05:28:42;;;;;;;2.55;0.90;;;;;;;13.92;62.50;99585.81;5054941;28;20070;-74
2023/03/23 05:31:19;;;;;;;1.65;0.80;;;;;;;13.95;62.90;99577.75;5056059;28;20024;-74
2023/03/23 05:33:45;;;;;;;1.88;0.70;;;;;;;13.97;63.04;99586.53;5049726;28;20078;-74
2023/03/23 05:36:34;;;;;;;2.78;1.15;;;;;;;13.93;62.97;99584.91;5065786;28;20044;-74
2023/03/23 05:39:35;;;;;;;2.92;0.60;;;;;;;13.93;62.96;99579.59;5052800;28;20055;-74
2023/03/23 05:42:12;;;;;;;2.10;0.85;;;;;;;13.99;63.01;99584.69;5046136;28;20036;-73
2023/03/23 05:44:48;;;;;;;2.38;1.02;;;;;;;14.02;62.42;99595.19;5051461;28;20093;-74
2023/03/23 05:47:14;;;;;;;2.35;0.90;;;;;;;14.10;62.54;99599.38;5052216;28;20715;-74
2023/03/23 05:49:45;;;;;;;2.65;1.00;;;;;;;14.12;62.86;99594.84;5053175;28;20036;-74
2023/03/23 05:52:15;;;;;;;3.00;1.02;;;;;;;14.13;63.34;99594.81;5047824;28;20521;-74
2023/03/23 05:54:41;;;;;;;3.72;1.00;;;;;;;14.11;63.09;99594.00;5051615;28;20033;-74
2023/03/23 05:57:08;;;;;;;3.92;1.23;;;;;;;14.12;63.28;99584.25;5051007;28;20521;-74
2023/03/23 05:59:46;;;;;;;2.15;0.80;;;;;;;14.12;63.36;99589.56;5054280;28;20053;-74
2023/03/23 06:02:18;;;;;;;4.35;2.35;;;;;;;14.16;63.18;99591.19;5052098;28;20478;-74
2023/03/23 06:04:44;;;;;;;7.88;4.05;;;;;;;14.23;62.60;99584.75;5053833;28;20141;-74
2023/03/23 06:07:21;;;;;;;3.67;1.73;;;;;;;14.29;62.88;99579.22;5051557;28;20055;-74
2023/03/23 06:09:55;;;;;;;3.33;1.25;;;;;;;14.30;62.98;99586.22;5060584;28;20516;-74
2023/03/23 06:12:24;;;;;;;3.75;1.50;;;;;;;14.36;62.67;99582.50;5063411;28;20131;-74
2023/03/23 06:15:09;;;;;;;1.73;0.90;;;;;;;14.39;62.43;99593.88;5050573;28;20048;-74
2023/03/23 06:18:05;;;;;;;2.58;1.13;;;;;;;14.40;62.20;99590.28;5065206;28;20102;-74
2023/03/23 06:20:43;;;;;;;4.03;1.00;;;;;;;14.43;62.68;99584.00;5049465;28;20036;-74
2023/03/23 06:23:32;;;;;;;2.70;1.40;;;;;;;14.47;62.17;99583.84;5045417;28;20203;-74
2023/03/23 06:26:05;;;;;;;3.67;1.30;;;;;;;14.58;62.24;99582.59;5046144;28;20633;-74
2023/03/23 06:28:31;;;;;;;5.60;1.58;;;;;;;14.59;61.76;99584.31;5046084;28;20052;-73
2023/03/23 06:31:04;;;;;;;2.20;1.10;;;;;;;14.67;61.78;99587.56;5043616;28;20028;-74
2023/03/23 06:33:30;;;;;;;3.53;1.30;;;;;;;14.67;61.62;99590.22;5046902;28;20063;-74
2023/03/23 06:36:22;;;;;;;3.05;1.20;;;;;;;14.71;61.80;99590.97;5041393;28;20122;-74
2023/03/23 06:39:04;;;;;;;3.13;1.00;;;;;;;14.76;61.96;99603.16;5054878;28;20036;-74
2023/03/23 06:41:56;;;;;;;;;;;;;;;14.77;61.65;99599.56;5052047;28;20043;-74
2023/03/23 06:44:22;;;;;;;4.15;0.90;;;;;;;14.74;60.97;99609.44;5062249;28;19912;-74
2023/03/23 06:46:48;;;;;;;2.83;1.00;;;;;;;14.79;61.10;99610.13;5050422;28;20042;-74
2023/03/23 06:49:26;;;;;;;2.63;0.70;;;;;;;14.86;60.73;99609.84;5051281;28;20433;-74
2023/03/23 06:52:06;;;;;;;5.38;1.33;;;;;;;14.96;59.93;99609.47;5053754;28;20174;-74
2023/03/23 06:54:32;;;;;;;2.90;1.10;;;;;;;15.05;59.44;99611.78;5046239;28;20508;-74
2023/03/23 06:57:00;;;;;;;3.88;1.10;;;;;;;15.18;59.36;99606.88;5058144;28;20036;-75
2023/03/23 06:59:26;;;;;;;3.25;1.00;;;;;;;15.24;59.45;99615.44;5051307;28;20021;-74
2023/03/23 07:01:51;;;;;;;3.00;1.30;;;;;;;15.30;58.73;99622.28;5049858;28;20025;-74
2023/03/23 07:04:17;;;;;;;2.72;0.93;;;;;;;15.26;59.39;99629.53;5042862;28;20123;-74
2023/03/23 07:06:50;;;;;;;3.83;1.00;;;;;;;15.26;60.14;99634.84;5053436;28;20037;-74
2023/03/23 07:09:16;;;;;;;3.65;1.42;;;;;;;15.29;60.61;99629.41;5052334;28;20045;-74
2023/03/23 07:11:41;;;;;;;1.55;0.80;;;;;;;15.16;59.44;99640.59;5049102;28;20410;-74
2023/03/23 07:14:17;;;;;;;1.73;0.73;;;;;;;15.13;60.76;99634.47;5045714;28;20028;-74
2023/03/23 07:16:43;;;;;;;3.00;0.80;;;;;;;15.02;61.20;99651.78;5047460;28;20060;-74
2023/03/23 07:19:08;;;;;;;2.45;0.80;;;;;;;14.88;60.80;99650.50;5063201;28;20075;-74
2023/03/23 07:21:33;;;;;;;2.50;0.90;;;;;;;14.81;62.72;99649.00;5044745;28;20025;-74
2023/03/23 07:23:59;;;;;;;3.17;0.80;;;;;;;14.83;62.17;99649.81;5060780;28;20029;-74
2023/03/23 07:26:45;;;;;;;1.98;0.90;;;;;;;14.74;63.72;99657.25;5061545;28;20072;-74
2023/03/23 07:29:10;;;;;;;1.52;0.77;;;;;;;14.64;64.23;99667.34;5035058;28;20079;-74
2023/03/23 07:31:40;;;;;;;4.65;1.08;;;;;;;14.60;64.67;99671.03;5061146;28;20086;-74
2023/03/23 07:34:06;;;;;;;4.00;1.33;;;;;;;14.57;66.16;99673.81;5053715;28;20028;-74
2023/03/23 07:36:43;;;;;;;2.38;0.60;;;;;;;14.53;66.50;99685.47;5050550;28;20036;-74
2023/03/23 07:39:09;;;;;;;2.33;0.88;;;;;;;14.48;66.61;99675.81;5051197;28;20032;-74
2023/03/23 07:41:35;;;;;;;2.70;0.90;;;;;;;14.44;67.19;99676.88;5052849;28;20029;-74
2023/03/23 07:44:10;;;;;;;1.20;0.60;;;;;;;14.38;68.37;99693.03;5050140;28;20044;-74
2023/03/23 07:46:36;;;;;;;1.80;0.82;;;;;;;14.33;68.85;99683.47;5060883;28;20033;-74
2023/03/23 07:49:14;;;;;;;2.25;0.80;;;;;;;14.29;70.08;99690.69;5055909;22;20044;-76
2023/03/23 07:51:45;;;;;;;2.58;1.17;;;;;;;14.32;70.30;99687.06;5047076;28;20455;-78
2023/03/23 07:54:14;;;;;;;3.10;1.08;;;;;;;14.34;71.00;99691.38;5034929;28;20036;-78
2023/03/23 07:56:51;;;;;;;1.90;0.80;;;;;;;14.31;71.27;99698.59;5038096;28;20068;-78
2023/03/23 07:59:22;;;;;;;3.05;1.10;;;;;;;14.11;74.33;99705.44;5060096;28;20085;-78
2023/03/23 08:01:47;;;;;;;3.75;1.33;;;;;;;13.96;75.27;99703.28;5065115;28;20115;-78
2023/03/23 08:04:27;;;;;;;2.78;0.90;;;;;;;13.93;76.24;99698.97;5074284;28;20064;-78
2023/03/23 08:07:12;;;;;;;3.30;0.82;;;;;;;14.02;76.26;99698.66;5068956;28;20055;-78
2023/03/23 08:09:50;;;;;;;4.43;1.65;;;;;;;14.03;75.97;99702.19;5052641;28;20112;-78
2023/03/23 08:12:31;;;;;;;4.80;1.20;;;;;;;14.01;75.73;99702.22;5069861;28;20058;-78
2023/03/23 08:15:15;;;;;;;5.18;1.83;;;;;;;14.11;76.54;99704.56;5064269;28;20095;-78
2023/03/23 08:18:06;;;;;;;3.13;1.00;;;;;;;14.12;76.98;99701.88;5070628;28;20051;-78
2023/03/23 08:20:41;;;;;;;1.95;1.00;;;;;;;14.14;76.25;99704.47;5069065;28;20049;-78
2023/03/23 08:23:32;;;;;;;2.58;1.30;;;;;;;14.17;76.35;99715.88;5060557;28;20051;-78
2023/03/23 08:26:11;;;;;;;4.45;1.00;;;;;;;14.21;76.12;99719.28;5058099;28;20033;-78
2023/03/23 08:28:49;;;;;;;2.33;0.80;;;;;;;14.34;75.26;99717.06;5068718;28;20051;-78
2023/03/23 08:31:47;;;;;;;2.17;0.82;;;;;;;14.48;75.17;99707.69;5056396;28;20078;-78
2023/03/23 08:34:44;;;;;;;3.20;1.20;;;;;;;14.46;74.87;99709.56;5059875;28;20094;-78
2023/03/23 08:37:30;;;;;;;2.53;1.00;;;;;;;14.61;73.15;99709.94;5053145;28;20028;-78
2023/03/23 08:40:19;;;;;;;2.15;0.88;;;;;;;14.69;73.42;99713.19;5054030;28;20052;-78
2023/03/23 08:42:55;;;;;;;3.28;0.77;;;;;;;14.73;72.95;99716.63;5053833;28;20065;-78
2023/03/23 08:45:39;;;;;;;3.83;1.02;;;;;;;14.81;72.98;99712.75;5073896;28;20094;-78
2023/03/23 08:48:35;;;;;;;1.77;0.90;;;;;;;14.89;73.24;99709.81;5061030;28;20036;-78
2023/03/23 08:51:23;;;;;;;2.50;1.00;;;;;;;14.88;71.96;99710.72;5072054;28;20066;-78
2023/03/23 08:54:11;;;;;;;2.17;1.00;;;;;;;14.98;71.78;99711.25;5071342;28;20111;-78
2023/03/23 08:57:00;;;;;;;2.08;0.88;;;;;;;14.99;72.07;99705.03;5061928;28;20564;-78
2023/03/23 08:59:59;;;;;;;2.42;1.10;;;;;;;14.98;72.58;99708.59;5055438;28;20451;-78
2023/03/23 09:02:50;;;;;;;3.63;1.15;;;;;;;15.03;71.74;99717.25;5050853;28;20055;-78
2023/03/23 09:05:24;;;;;;;3.25;1.25;;;;;;;15.11;70.65;99715.19;5073476;28;20090;-78
2023/03/23 09:08:03;;;;;;;2.75;1.30;;;;;;;15.21;71.17;99711.25;5068962;28;20055;-78
2023/03/23 09:10:30;;;;;;;3.67;1.30;;;;;;;15.32;70.56;99698.41;5069162;28;20033;-78
2023/03/23 09:12:56;;;;;;;3.00;1.23;;;;;;;15.54;69.51;99702.91;5072686;28;20064;-78
2023/03/23 09:15:22;;;;;;;3.85;1.60;;;;;;;15.65;69.29;99702.47;5069998;28;20031;-78
2023/03/23 09:17:50;;;;;;;3.25;1.00;;;;;;;15.73;67.64;99687.97;5071300;28;20051;-78
2023/03/23 09:20:21;;;;;;;3.13;1.10;;;;;;;15.64;68.28;99701.63;5065758;28;20039;-78
2023/03/23 09:22:49;;;;;;;2.53;1.33;;;;;;;15.47;68.25;99702.28;5054949;28;20025;-78
2023/03/23 09:25:20;;;;;;;3.30;1.17;;;;;;;15.54;69.30;99710.88;5074684;28;20044;-78
2023/03/23 09:27:49;;;;;;;3.50;1.38;;;;;;;15.58;69.53;99704.50;5067519;28;20041;-78
2023/03/23 09:30:14;;;;;;;3.72;1.40;;;;;;;15.77;69.59;99710.88;5071246;28;20044;-78
2023/03/23 09:32:42;;;;;;;2.90;1.27;;;;;;;15.77;68.04;99700.22;5074254;28;20048;-78
2023/03/23 09:35:09;;;;;;;4.65;1.13;;;;;;;15.95;67.90;99703.03;5070548;28;20040;-78
2023/03/23 09:37:35;;;;;;;2.47;1.10;;;;;;;15.89;66.50;99708.63;5071233;28;20047;-78
2023/03/23 09:40:05;;;;;;;2.70;1.02;;;;;;;16.14;66.03;99713.81;5050244;28;20032;-78
2023/03/23 09:42:46;;;;;;;2.42;1.13;;;;;;;16.02;66.10;99704.53;5066208;28;20033;-78
2023/03/23 09:45:33;;;;;;;4.18;1.52;;;;;;;16.12;66.83;99700.53;5063936;28;20041;-78
2023/03/23 09:48:27;;;;;;;2.45;1.17;;;;;;;15.99;65.57;99707.31;5062221;28;20029;-78
2023/03/23 09:51:12;;;;;;;2.80;1.13;;;;;;;15.83;67.40;99703.56;5065389;28;20108;-78
2023/03/23 09:53:42;;;;;;;2.95;1.30;;;;;;;15.77;66.60;99688.69;5069907;28;20167;-78
2023/03/23 09:56:13;;;;;;;3.17;1.05;;;;;;;15.67;66.97;99682.88;5057649;28;20040;-78
2023/03/23 09:58:56;;;;;;;4.50;1.90;;;;;;;15.96;67.44;99695.00;5069830;28;20515;-77
2023/03/23 10:01:27;;;;;;;4.75;1.13;;;;;;;15.93;66.01;99697.78;5054761;28;20414;-78
2023/03/23 10:04:18;;;;;;;2.58;1.17;;;;;;;16.08;66.25;99703.41;5068465;28;20041;-78
2023/03/23 10:06:46;;;;;;;6.53;1.50;;;;;;;16.03;65.76;99700.91;5071897;28;20039;-77
2023/03/23 10:09:18;;;;;;;4.20;1.40;;;;;;;16.16;65.77;99701.28;5068737;28;20037;-78
2023/03/23 10:12:35;;;;;;;5.07;1.40;;;;;;;16.33;64.96;99700.56;5075127;28;20040;-78
2023/03/23 10:15:18;;;;;;;2.45;1.00;;;;;;;16.39;64.42;99702.94;5014514;28;20049;-78
2023/03/23 10:18:08;;;;;;;2.08;0.95;;;;;;;16.55;65.01;99701.34;5070304;28;20043;-79
2023/03/23 10:20:56;;;;;;;3.28;1.58;;;;;;;16.86;63.87;99703.53;5077520;28;20029;-78
2023/03/23 10:23:55;;;;;;;2.33;1.05;;;;;;;17.08;62.58;99690.13;5071969;28;20124;-78
2023/03/23 10:26:33;;;;;;;4.93;1.27;;;;;;;17.14;62.27;99685.44;5069535;28;20107;-78
2023/03/23 10:29:11;;;;;;;3.20;1.23;;;;;;;17.30;61.23;99689.09;5073821;28;20039;-78
2023/03/23 10:31:42;;;;;;;2.83;1.20;;;;;;;17.42;61.89;99683.19;5069813;28;20045;-78
2023/03/23 10:34:15;;;;;;;4.05;1.30;;;;;;;17.64;61.21;99684.81;5069505;28;20040;-78
2023/03/23 10:36:59;;;;;;;3.42;1.40;;;;;;;17.63;61.59;99677.75;5067426;28;20032;-78
2023/03/23 10:39:31;;;;;;;3.97;1.55;;;;;;;17.58;60.90;99682.44;5062802;28;20044;-78
2023/03/23 10:42:02;;;;;;;3.45;1.27;;;;;;;17.43;60.93;99671.59;5063462;28;20040;-77
2023/03/23 10:44:29;;;;;;;4.70;1.48;;;;;;;17.13;60.18;99671.22;5057610;28;20124;-77
2023/03/23 10:47:03;;;;;;;3.30;1.50;;;;;;;17.06;61.21;99685.78;5061069;28;20041;-78
2023/03/23 10:49:42;;;;;;;2.50;1.15;;;;;;;16.88;62.62;99681.31;5064849;28;20039;-78
2023/03/23 10:52:28;;;;;;;3.88;1.50;;;;;;;16.77;61.25;99679.09;5066046;28;20048;-79
2023/03/23 10:55:04;;;;;;;2.70;1.15;;;;;;;16.59;61.24;99676.31;5058829;28;20501;-78
2023/03/23 10:57:33;;;;;;;2.35;1.10;;;;;;;16.59;61.72;99681.66;5059586;28;20123;-78
2023/03/23 11:00:18;;;;;;;7.88;1.70;;;;;;;16.55;62.94;99677.38;5069735;28;20029;-78
2023/03/23 11:03:06;;;;;;;4.45;1.20;;;;;;;16.50;62.16;99682.03;5065250;28;20032;-79
2023/03/23 11:05:37;;;;;;;2.22;1.00;;;;;;;16.53;62.07;99679.25;5069543;28;20053;-78
2023/03/23 11:08:03;;;;;;;2.90;1.38;;;;;;;16.52;61.43;99688.16;5072899;28;20116;-79
2023/03/23 11:10:41;;;;;;;2.17;0.93;;;;;;;16.57;61.02;99694.16;5076128;28;20059;-79
2023/03/23 11:13:13;;;;;;;2.92;1.10;;;;;;;16.51;60.12;99691.78;5066867;28;20045;-78
2023/03/23 11:15:41;;;;;;;2.80;1.00;;;;;;;16.54;60.68;99704.94;5064083;28;20043;-78
2023/03/23 11:18:18;;;;;;;2.40;0.90;;;;;;;16.59;60.03;99694.97;5064251;28;20128;-77
2023/03/23 11:20:48;;;;;;;3.95;1.20;;;;;;;16.47;59.76;99692.84;5062131;28;20040;-78
2023/03/23 11:23:24;;;;;;;2.65;1.00;;;;;;;16.60;59.52;99696.69;5060130;28;20115;-78
2023/03/23 11:25:59;;;;;;;1.95;0.88;;;;;;;16.69;60.20;99705.19;5063110;28;20032;-78
2023/03/23 11:28:31;;;;;;;3.60;1.10;;;;;;;16.62;60.26;99705.47;5059223;28;20049;-78
2023/03/23 11:30:58;;;;;;;2.25;0.82;;;;;;;16.62;60.62;99700.16;5064060;28;20143;-78
2023/03/23 11:33:24;;;;;;;3.13;1.00;;;;;;;16.57;61.39;99698.63;5063664;28;20124;-78
2023/03/23 11:35:53;;;;;;;5.45;1.42;;;;;;;16.42;60.74;99708.16;5063168;28;20071;-78
2023/03/23 11:38:21;;;;;;;3.63;1.27;;;;;;;16.37;61.97;99705.69;5064392;28;20036;-78
2023/03/23 11:40:51;;;;;;;2.72;0.88;;;;;;;16.43;62.15;99717.88;5065434;28;20036;-78
2023/03/23 11:43:24;;;;;;;2.88;0.98;;;;;;;16.29;62.71;99707.81;5057787;28;20033;-78
2023/03/23 11:46:05;;;;;;;3.03;1.30;;;;;;;16.32;63.31;99707.69;5055791;28;20037;-78
2023/03/23 11:49:09;;;;;;;2.25;1.02;;;;;;;16.43;63.40;99705.44;5063941;28;20033;-78
2023/03/23 11:51:54;;;;;;;1.95;0.90;;;;;;;16.33;63.45;99708.56;5053084;28;20041;-78
2023/03/23 11:54:29;;;;;;;2.95;1.10;;;;;;;16.43;63.92;99702.75;5063010;28;20398;-78
2023/03/23 11:56:56;;;;;;;2.20;0.90;;;;;;;16.39;64.19;99713.59;5060807;28;20098;-77
2023/03/23 11:59:35;;;;;;;2.40;1.10;;;;;;;16.58;63.55;99698.56;5042778;28;20052;-78
2023/03/23 12:02:17;;;;;;;3.35;1.58;;;;;;;16.76;63.03;99707.53;5067838;28;20043;-78
2023/03/23 12:05:20;;;;;;;2.83;1.17;;;;;;;16.91;62.78;99711.34;5066408;28;20041;-78